createdAt,value
2022-11-03T00:01:39.133Z,85.20
2022-11-03T00:04:07.777Z,84.70
2022-11-03T00:06:35.990Z,83.70
2022-11-03T00:09:04.989Z,83.30
2022-11-03T00:11:33.502Z,83.60
2022-11-03T00:14:01.677Z,81.70
2022-11-03T00:16:29.648Z,81.00
2022-11-03T00:18:58.834Z,73.90
2022-11-03T00:21:26.649Z,76.70
2022-11-03T00:23:54.513Z,76.90
2022-11-03T00:26:23.127Z,75.20
2022-11-03T00:28:51.473Z,74.90
2022-11-03T00:31:20.906Z,79.10
2022-11-03T00:33:49.031Z,81.20
2022-11-03T00:36:19.759Z,81.30
2022-11-03T00:38:47.768Z,80.50
2022-11-03T00:41:16.206Z,81.60
2022-11-03T00:43:44.224Z,80.20
2022-11-03T00:46:12.118Z,84.10
2022-11-03T00:48:40.141Z,83.20
2022-11-03T00:51:08.962Z,86.10
2022-11-03T00:53:38.798Z,90.20
2022-11-03T00:56:07.089Z,87.60
2022-11-03T00:58:34.988Z,87.50
2022-11-03T01:01:03.396Z,85.30
2022-11-03T01:03:32.426Z,84.40
2022-11-03T01:06:17.893Z,81.90
2022-11-03T01:08:47.436Z,84.10
2022-11-03T01:11:35.372Z,82.70
2022-11-03T01:14:03.668Z,82.30
2022-11-03T01:16:31.708Z,85.50
2022-11-03T01:18:59.506Z,87.00
2022-11-03T01:21:27.586Z,85.10
2022-11-03T01:23:56.936Z,82.40
2022-11-03T01:26:24.767Z,83.40
2022-11-03T01:28:52.591Z,84.10
2022-11-03T01:31:21.596Z,82.50
2022-11-03T01:33:50.578Z,84.00
2022-11-03T01:36:18.856Z,89.50
2022-11-03T01:38:46.942Z,86.60
2022-11-03T01:41:17.865Z,84.40
2022-11-03T01:43:45.704Z,79.40
2022-11-03T01:46:17.454Z,83.10
2022-11-03T01:48:47.917Z,86.30
2022-11-03T01:51:16.551Z,87.00
2022-11-03T01:53:45.749Z,86.20
2022-11-03T01:56:14.678Z,86.80
2022-11-03T01:58:44.929Z,88.10
2022-11-03T02:01:12.929Z,90.00
2022-11-03T02:03:42.567Z,93.00
2022-11-03T02:06:11.016Z,92.10
2022-11-03T02:08:41.217Z,91.60
2022-11-03T02:11:23.464Z,91.20
2022-11-03T02:13:52.789Z,89.90
2022-11-03T02:16:21.693Z,90.20
2022-11-03T02:18:50.444Z,88.60
2022-11-03T02:21:26.407Z,87.40
2022-11-03T02:23:59.996Z,87.50
2022-11-03T02:26:29.343Z,84.40
2022-11-03T02:28:57.197Z,88.00
2022-11-03T02:31:28.534Z,88.70
2022-11-03T02:33:58.314Z,90.90
2022-11-03T02:36:28.954Z,91.00
2022-11-03T02:38:58.558Z,90.90
2022-11-03T02:41:27.388Z,91.40
2022-11-03T02:43:57.607Z,89.90
2022-11-03T02:46:26.734Z,88.30
2022-11-03T02:48:54.542Z,85.20
2022-11-03T02:51:22.330Z,76.60
2022-11-03T02:54:01.927Z,78.00
2022-11-03T02:56:31.542Z,76.50
2022-11-03T02:59:02.563Z,74.60
2022-11-03T03:01:34.881Z,73.50
2022-11-03T03:04:05.142Z,78.30
2022-11-03T03:06:36.406Z,80.90
2022-11-03T03:09:05.865Z,81.50
2022-11-03T03:11:40.297Z,76.50
2022-11-03T03:14:11.259Z,80.10
2022-11-03T03:16:43.555Z,80.60
2022-11-03T03:19:17.786Z,80.60
2022-11-03T03:21:47.687Z,80.90
2022-11-03T03:24:19.727Z,79.60
2022-11-03T03:26:49.526Z,83.40
2022-11-03T03:29:20.793Z,85.70
2022-11-03T03:31:50.988Z,86.70
2022-11-03T03:34:36.321Z,89.60
2022-11-03T03:37:05.929Z,89.50
2022-11-03T03:39:36.539Z,86.30
2022-11-03T03:42:05.459Z,82.10
2022-11-03T03:44:35.212Z,84.60
2022-11-03T03:47:05.011Z,86.60
2022-11-03T03:49:32.821Z,88.60
2022-11-03T03:52:00.693Z,88.00
2022-11-03T03:54:28.479Z,87.10
2022-11-03T03:56:58.377Z,89.40
2022-11-03T03:59:26.166Z,89.10
2022-11-03T04:01:55.373Z,89.70
2022-11-03T04:04:23.414Z,90.30
2022-11-03T04:07:11.206Z,89.70
2022-11-03T04:09:39.026Z,87.30
2022-11-03T04:12:24.302Z,87.20
2022-11-03T04:15:09.571Z,88.80
2022-11-03T04:17:57.731Z,89.40
2022-11-03T04:20:44.481Z,89.80
2022-11-03T04:23:12.295Z,91.50
2022-11-03T04:25:40.091Z,90.80
2022-11-03T04:28:10.055Z,92.10
2022-11-03T04:30:37.850Z,94.30
2022-11-03T04:33:13.170Z,96.00
2022-11-03T04:35:44.105Z,96.60
2022-11-03T04:38:21.593Z,95.60
2022-11-03T04:40:53.635Z,95.70
2022-11-03T04:43:24.369Z,92.80
2022-11-03T04:45:52.192Z,92.90
2022-11-03T04:48:22.704Z,91.70
2022-11-03T04:50:51.207Z,91.80
2022-11-03T04:53:19.913Z,92.40
2022-11-03T04:55:49.002Z,92.50
2022-11-03T04:58:19.509Z,93.10
2022-11-03T05:00:47.442Z,92.40
2022-11-03T05:03:17.188Z,93.50
2022-11-03T05:05:46.630Z,93.00
2022-11-03T05:08:14.693Z,94.10
2022-11-03T05:10:42.513Z,94.70
2022-11-03T05:13:16.382Z,94.30
2022-11-03T05:15:44.801Z,94.60
2022-11-03T05:18:18.566Z,95.60
2022-11-03T05:20:50.451Z,96.20
2022-11-03T05:23:19.113Z,95.90
2022-11-03T05:25:48.612Z,95.10
2022-11-03T05:28:21.423Z,95.50
2022-11-03T05:30:49.641Z,97.30
2022-11-03T05:33:22.921Z,98.00
2022-11-03T05:35:52.071Z,97.80
2022-11-03T05:38:20.889Z,97.70
2022-11-03T05:40:50.598Z,97.70
2022-11-03T05:43:19.472Z,98.20
2022-11-03T05:45:47.869Z,98.50
2022-11-03T05:48:18.674Z,99.30
2022-11-03T05:50:46.579Z,99.80
2022-11-03T05:53:23.710Z,99.90
2022-11-03T05:55:51.779Z,99.90
2022-11-03T05:58:23.517Z,99.90
2022-11-03T06:00:51.334Z,99.80
2022-11-03T06:03:22.422Z,99.30
2022-11-03T06:05:50.297Z,99.50
2022-11-03T06:08:21.403Z,99.90
2022-11-03T06:10:50.289Z,99.90
2022-11-03T06:13:20.065Z,99.90
2022-11-03T06:15:48.628Z,99.90
2022-11-03T06:18:18.871Z,99.90
2022-11-03T06:20:50.092Z,99.90
2022-11-03T06:23:19.510Z,99.90
2022-11-03T06:25:49.712Z,99.90
2022-11-03T06:28:19.021Z,99.90
2022-11-03T06:30:47.083Z,99.90
2022-11-03T06:33:16.577Z,99.90
2022-11-03T06:35:44.793Z,99.90
2022-11-03T06:38:17.519Z,99.90
2022-11-03T06:40:45.921Z,99.90
2022-11-03T06:43:22.582Z,99.90
2022-11-03T06:45:51.851Z,99.90
2022-11-03T06:48:24.775Z,99.90
2022-11-03T06:50:53.377Z,99.90
2022-11-03T06:53:22.655Z,99.90
2022-11-03T06:55:50.633Z,99.90
2022-11-03T06:58:20.854Z,99.90
2022-11-03T07:00:51.631Z,98.90
2022-11-03T07:03:22.289Z,99.00
2022-11-03T07:05:50.095Z,99.40
2022-11-03T07:08:21.727Z,99.90
2022-11-03T07:10:51.007Z,98.90
2022-11-03T07:13:20.747Z,99.60
2022-11-03T07:15:50.016Z,99.60
2022-11-03T07:18:21.249Z,99.90
2022-11-03T07:20:49.138Z,99.80
2022-11-03T07:23:19.398Z,99.90
2022-11-03T07:25:48.941Z,99.90
2022-11-03T07:28:16.707Z,99.90
2022-11-03T07:30:44.521Z,99.60
2022-11-03T07:33:15.743Z,98.10
2022-11-03T07:38:33.978Z,99.10
2022-11-03T07:41:01.941Z,98.00
2022-11-03T07:43:31.414Z,98.90
2022-11-03T07:46:00.205Z,97.80
2022-11-03T07:48:29.840Z,97.00
2022-11-03T07:50:58.375Z,96.20
2022-11-03T07:53:33.553Z,95.70
2022-11-03T07:56:01.410Z,95.20
2022-11-03T07:58:33.497Z,93.60
2022-11-03T08:01:01.409Z,93.10
2022-11-03T08:03:41.549Z,92.90
2022-11-03T08:06:10.257Z,90.50
2022-11-03T08:08:39.559Z,87.70
2022-11-03T08:11:07.813Z,86.80
2022-11-03T08:13:35.688Z,83.70
2022-11-03T08:16:04.043Z,79.70
2022-11-03T08:18:33.206Z,73.40
2022-11-03T08:21:01.012Z,71.60
2022-11-03T08:23:29.251Z,67.00
2022-11-03T08:25:57.349Z,58.30
2022-11-03T08:28:25.147Z,56.30
2022-11-03T08:30:52.947Z,51.10
2022-11-03T08:33:20.819Z,47.20
2022-11-03T08:35:49.997Z,41.60
2022-11-03T08:38:17.815Z,40.50
2022-11-03T08:40:45.597Z,33.00
2022-11-03T08:43:13.363Z,27.60
2022-11-03T08:45:41.174Z,24.80
2022-11-03T08:48:09.410Z,18.10
2022-11-03T08:50:37.524Z,7.30
2022-11-03T08:53:06.884Z,8.10
2022-11-03T08:55:34.671Z,9.30
2022-11-03T08:58:02.428Z,1.00
2022-11-03T09:00:30.324Z,1.00
2022-11-03T09:02:58.130Z,1.00
2022-11-03T09:05:25.984Z,1.00
2022-11-03T09:10:43.121Z,1.00
2022-11-03T09:13:10.989Z,1.00
2022-11-03T09:15:38.858Z,1.00
2022-11-03T09:18:07.067Z,1.00
2022-11-03T09:20:35.062Z,1.00
2022-11-03T09:23:02.889Z,1.00
2022-11-03T09:25:30.723Z,1.00
2022-11-03T09:27:59.895Z,1.00
2022-11-03T09:30:28.909Z,1.00
2022-11-03T09:32:56.722Z,1.00
2022-11-03T09:35:24.572Z,1.00
2022-11-03T09:37:52.323Z,1.00
2022-11-03T09:40:21.569Z,1.00
2022-11-03T09:42:49.547Z,1.00
2022-11-03T09:45:18.693Z,1.00
2022-11-03T09:47:47.049Z,1.00
2022-11-03T09:50:16.452Z,1.00
2022-11-03T09:52:48.833Z,1.00
2022-11-03T09:55:21.533Z,1.00
2022-11-03T09:57:49.498Z,1.00
2022-11-03T10:00:19.704Z,1.00
2022-11-03T10:02:48.137Z,1.00
2022-11-03T10:05:17.451Z,1.00
2022-11-03T10:07:45.620Z,1.00
2022-11-03T10:10:17.959Z,1.00
2022-11-03T10:12:46.199Z,1.00
2022-11-03T10:15:17.938Z,1.00
2022-11-03T10:17:47.645Z,1.00
2022-11-03T10:20:16.343Z,1.00
2022-11-03T10:22:45.237Z,1.00
2022-11-03T10:25:29.358Z,1.00
2022-11-03T10:28:20.061Z,1.00
2022-11-03T10:33:41.929Z,1.00
2022-11-03T10:36:23.266Z,1.00
2022-11-03T10:38:51.203Z,1.00
2022-11-03T10:41:19.794Z,1.00
2022-11-03T10:44:00.618Z,1.00
2022-11-03T10:46:49.228Z,1.00
2022-11-03T10:49:19.717Z,1.00
2022-11-03T10:51:48.890Z,1.00
2022-11-03T10:54:18.085Z,1.00
2022-11-03T10:56:46.653Z,1.00
2022-11-03T10:59:17.374Z,1.00
2022-11-03T11:01:45.346Z,1.00
2022-11-03T11:04:15.963Z,1.00
2022-11-03T11:06:46.090Z,1.00
2022-11-03T11:09:15.293Z,1.00
2022-11-03T11:11:57.955Z,1.00
2022-11-03T11:14:36.926Z,1.00
2022-11-03T11:17:05.427Z,1.00
2022-11-03T11:19:53.224Z,1.00
2022-11-03T11:22:24.171Z,1.00
2022-11-03T11:25:02.026Z,1.00
2022-11-03T11:27:51.945Z,1.00
2022-11-03T11:30:40.536Z,1.00
2022-11-03T11:33:14.224Z,1.00
2022-11-03T11:36:06.332Z,1.00
2022-11-03T11:38:56.227Z,1.00
2022-11-03T11:41:38.892Z,1.00
2022-11-03T11:44:21.534Z,1.00
2022-11-03T11:46:49.343Z,1.00
2022-11-03T11:49:17.982Z,1.00
2022-11-03T11:51:46.048Z,1.00
2022-11-03T11:54:18.541Z,1.00
2022-11-03T11:56:47.480Z,1.00
2022-11-03T11:59:22.978Z,1.00
2022-11-03T12:01:53.559Z,1.00
2022-11-03T12:04:23.329Z,1.00
2022-11-03T12:06:51.156Z,1.00
2022-11-03T12:09:21.359Z,1.00
2022-11-03T12:11:53.918Z,1.00
2022-11-03T12:14:24.286Z,1.00
2022-11-03T12:16:52.077Z,1.00
2022-11-03T12:19:38.407Z,1.00
2022-11-03T12:22:06.920Z,1.00
2022-11-03T12:24:46.616Z,1.00
2022-11-03T12:27:33.918Z,1.00
2022-11-03T12:30:02.476Z,1.00
2022-11-03T12:32:35.355Z,1.00
2022-11-03T12:35:03.477Z,1.00
2022-11-03T12:37:31.280Z,1.00
2022-11-03T12:40:00.507Z,1.00
2022-11-03T12:42:28.324Z,1.00
2022-11-03T12:44:56.121Z,1.00
2022-11-03T12:47:23.926Z,1.00
2022-11-03T12:49:51.694Z,1.00
2022-11-03T12:52:19.722Z,1.00
2022-11-03T12:54:47.537Z,1.00
2022-11-03T12:57:17.438Z,1.00
2022-11-03T12:59:45.194Z,1.00
2022-11-03T13:02:13.177Z,1.00
2022-11-03T13:04:41.073Z,1.00
2022-11-03T13:07:09.077Z,1.00
2022-11-03T13:09:36.934Z,1.00
2022-11-03T13:12:22.639Z,1.00
2022-11-03T13:14:51.832Z,1.00
2022-11-03T13:17:19.693Z,1.00
2022-11-03T13:19:47.460Z,1.00
2022-11-03T13:22:15.855Z,1.00
2022-11-03T13:24:43.676Z,1.00
2022-11-03T13:27:11.493Z,1.00
2022-11-03T13:29:39.745Z,1.00
2022-11-03T13:32:09.313Z,1.00
2022-11-03T13:34:37.081Z,1.00
2022-11-03T13:37:05.608Z,1.00
2022-11-03T13:39:33.401Z,1.00
2022-11-03T13:42:01.513Z,1.00
2022-11-03T13:44:29.304Z,1.00
2022-11-03T13:46:57.075Z,1.00
2022-11-03T13:52:14.023Z,1.00
2022-11-03T14:00:17.516Z,1.00
2022-11-03T14:05:34.446Z,1.00
2022-11-03T14:08:02.220Z,1.00
2022-11-03T14:10:30.013Z,1.00
2022-11-03T14:12:56.829Z,1.00
2022-11-03T14:15:24.673Z,1.00
2022-11-03T14:17:52.514Z,1.00
2022-11-03T14:20:20.365Z,1.00
2022-11-03T14:22:49.513Z,1.00
2022-11-03T14:25:20.144Z,1.00
2022-11-03T14:27:48.135Z,1.00
2022-11-03T14:30:17.272Z,1.00
2022-11-03T14:32:45.073Z,1.00
2022-11-03T14:35:12.875Z,1.00
2022-11-03T14:37:41.475Z,1.00
2022-11-03T14:40:32.057Z,1.00
2022-11-03T14:42:58.867Z,1.00
2022-11-03T14:45:26.759Z,1.00
2022-11-03T14:47:54.617Z,1.00
2022-11-03T14:50:22.374Z,1.00
2022-11-03T14:52:50.167Z,1.00
2022-11-03T14:55:19.302Z,1.00
2022-11-03T14:57:47.292Z,1.00
2022-11-03T15:00:15.847Z,1.00
2022-11-03T15:02:43.678Z,1.00
2022-11-03T15:05:32.074Z,1.00
2022-11-03T15:07:59.836Z,1.00
2022-11-03T15:10:28.971Z,1.00
2022-11-03T15:12:56.786Z,1.00
2022-11-03T15:15:24.669Z,1.00
2022-11-03T15:17:52.547Z,1.00
2022-11-03T15:20:20.431Z,1.00
2022-11-03T15:25:37.473Z,1.00
2022-11-03T15:28:05.838Z,1.00
2022-11-03T15:30:33.826Z,1.00
2022-11-03T15:33:01.782Z,1.00
2022-11-03T15:35:29.657Z,1.00
2022-11-03T15:37:58.875Z,1.00
2022-11-03T15:40:26.930Z,1.00
2022-11-03T15:43:00.429Z,1.00
2022-11-03T15:45:30.649Z,1.00
2022-11-03T15:47:58.733Z,1.00
2022-11-03T15:50:27.117Z,1.00
2022-11-03T15:52:54.983Z,1.00
2022-11-03T15:55:22.822Z,1.00
2022-11-03T15:57:50.845Z,1.00
2022-11-03T16:00:20.324Z,1.00
2022-11-03T16:02:48.300Z,1.00
2022-11-03T16:05:19.782Z,1.00
2022-11-03T16:07:51.761Z,1.00
2022-11-03T16:10:19.530Z,1.00
2022-11-03T16:12:47.352Z,1.00
2022-11-03T16:15:15.219Z,1.00
2022-11-03T16:17:45.705Z,1.00
2022-11-03T16:20:13.736Z,1.00
2022-11-03T16:22:41.610Z,1.00
2022-11-03T16:25:12.743Z,1.00
2022-11-03T16:27:42.747Z,1.00
2022-11-03T16:30:11.609Z,1.00
2022-11-03T16:32:39.370Z,1.00
2022-11-03T16:35:09.816Z,1.00
2022-11-03T16:37:37.600Z,1.00
2022-11-03T16:40:05.968Z,1.00
2022-11-03T16:42:38.332Z,1.00
2022-11-03T16:45:14.942Z,1.00
2022-11-03T16:47:42.747Z,1.00
2022-11-03T16:50:12.000Z,1.00
2022-11-03T16:52:39.818Z,1.00
2022-11-03T16:55:09.309Z,1.00
2022-11-03T16:57:37.132Z,1.00
2022-11-03T17:00:05.053Z,1.00
2022-11-03T17:02:32.867Z,1.00
2022-11-03T17:05:00.673Z,1.00
2022-11-03T17:07:29.841Z,1.00
2022-11-03T17:09:57.740Z,1.00
2022-11-03T17:12:25.692Z,1.00
2022-11-03T17:14:56.599Z,1.00
2022-11-03T17:17:24.879Z,1.00
2022-11-03T17:19:52.706Z,1.00
2022-11-03T17:22:22.085Z,1.00
2022-11-03T17:24:51.470Z,1.00
2022-11-03T17:27:20.852Z,1.00
2022-11-03T17:29:49.630Z,1.00
2022-11-03T17:32:24.110Z,1.00
2022-11-03T17:34:51.991Z,1.00
2022-11-03T17:37:19.862Z,1.00
2022-11-03T17:39:47.774Z,1.00
2022-11-03T17:42:17.773Z,1.00
2022-11-03T17:44:46.719Z,1.00
2022-11-03T17:47:14.909Z,1.70
2022-11-03T17:49:43.110Z,1.00
2022-11-03T17:52:12.627Z,1.00
2022-11-03T17:54:40.483Z,1.00
2022-11-03T17:57:08.286Z,1.00
2022-11-03T17:59:38.008Z,1.00
2022-11-03T18:02:05.912Z,1.00
2022-11-03T18:04:33.733Z,1.00
2022-11-03T18:07:01.663Z,1.30
2022-11-03T18:09:29.480Z,4.70
2022-11-03T18:12:14.841Z,3.30
2022-11-03T18:14:43.999Z,1.00
2022-11-03T18:17:11.802Z,8.00
2022-11-03T18:19:39.753Z,15.40
2022-11-03T18:22:09.653Z,11.40
2022-11-03T18:24:37.453Z,7.30
2022-11-03T18:27:06.959Z,12.60
2022-11-03T18:29:34.756Z,16.00
2022-11-03T18:32:03.936Z,10.60
2022-11-03T18:34:32.346Z,16.50
2022-11-03T18:37:00.168Z,14.70
2022-11-03T18:39:29.744Z,9.70
2022-11-03T18:41:57.557Z,13.10
2022-11-03T18:44:28.135Z,18.20
2022-11-03T18:46:56.247Z,27.80
2022-11-03T18:49:27.131Z,22.90
2022-11-03T18:52:02.115Z,22.20
2022-11-03T18:54:32.096Z,18.90
2022-11-03T18:57:00.519Z,17.00
2022-11-03T18:59:30.801Z,26.00
2022-11-03T19:01:59.094Z,25.40
2022-11-03T19:04:28.407Z,27.50
2022-11-03T19:06:58.419Z,23.80
2022-11-03T19:09:26.754Z,20.60
2022-11-03T19:11:56.742Z,27.60
2022-11-03T19:14:26.389Z,25.40
2022-11-03T19:19:46.417Z,35.40
2022-11-03T19:22:14.978Z,31.90
2022-11-03T19:24:42.829Z,34.80
2022-11-03T19:27:13.394Z,44.40
2022-11-03T19:29:41.673Z,41.80
2022-11-03T19:32:13.475Z,48.60
2022-11-03T19:34:41.323Z,40.60
2022-11-03T19:37:10.948Z,45.80
2022-11-03T19:39:40.414Z,43.20
2022-11-03T19:42:31.260Z,40.50
2022-11-03T19:44:59.818Z,46.20
2022-11-03T19:47:32.518Z,48.10
2022-11-03T19:50:01.596Z,46.10
2022-11-03T19:52:31.244Z,42.00
2022-11-03T19:54:59.403Z,42.40
2022-11-03T19:57:27.300Z,52.80
2022-11-03T19:59:58.972Z,52.50
2022-11-03T20:02:28.019Z,44.60
2022-11-03T20:04:56.217Z,42.60
2022-11-03T20:07:31.007Z,42.20
2022-11-03T20:10:02.350Z,45.40
2022-11-03T20:12:30.799Z,58.10
2022-11-03T20:14:58.711Z,42.90
2022-11-03T20:17:27.258Z,49.70
2022-11-03T20:19:55.123Z,48.40
2022-11-03T20:22:24.979Z,58.10
2022-11-03T20:24:55.087Z,57.60
2022-11-03T20:27:24.275Z,53.70
2022-11-03T20:29:52.165Z,59.20
2022-11-03T20:32:19.994Z,62.70
2022-11-03T20:34:47.850Z,57.00
2022-11-03T20:37:17.851Z,62.90
2022-11-03T20:39:46.082Z,63.90
2022-11-03T20:42:18.963Z,68.10
2022-11-03T20:44:48.159Z,65.00
2022-11-03T20:47:17.337Z,64.90
2022-11-03T20:49:45.270Z,77.30
2022-11-03T20:52:14.174Z,77.00
2022-11-03T20:54:43.131Z,77.50
2022-11-03T20:57:11.789Z,77.00
2022-11-03T20:59:39.627Z,75.70
2022-11-03T21:02:12.055Z,82.60
2022-11-03T21:04:40.251Z,78.90
2022-11-03T21:07:08.082Z,78.90
2022-11-03T21:09:35.890Z,79.90
2022-11-03T21:12:03.764Z,74.90
2022-11-03T21:14:32.754Z,72.80
2022-11-03T21:17:18.041Z,79.40
2022-11-03T21:19:59.342Z,85.90
2022-11-03T21:25:21.705Z,83.20
2022-11-03T21:27:50.227Z,84.30
2022-11-03T21:30:18.490Z,89.20
2022-11-03T21:32:47.775Z,89.70
2022-11-03T21:35:17.803Z,85.90
2022-11-03T21:37:45.624Z,89.50
2022-11-03T21:40:13.786Z,86.20
2022-11-03T21:42:59.125Z,83.30
2022-11-03T21:45:27.142Z,89.70
2022-11-03T21:48:14.409Z,88.50
2022-11-03T21:50:44.310Z,84.70
2022-11-03T21:53:12.557Z,85.80
2022-11-03T21:55:40.769Z,81.70
2022-11-03T21:58:08.710Z,87.90
2022-11-03T22:00:36.484Z,87.60
2022-11-03T22:03:04.298Z,87.50
2022-11-03T22:05:32.143Z,90.60
2022-11-03T22:08:01.295Z,89.20
2022-11-03T22:10:29.068Z,88.10
2022-11-03T22:12:56.866Z,84.70
2022-11-03T22:15:42.508Z,90.30
2022-11-03T22:18:10.485Z,88.90
2022-11-03T22:20:56.331Z,90.00
2022-11-03T22:23:42.619Z,90.10
2022-11-03T22:26:28.862Z,86.00
2022-11-03T22:29:12.087Z,91.20
2022-11-03T22:31:42.909Z,90.30
2022-11-03T22:34:28.351Z,85.40
2022-11-03T22:36:56.182Z,90.00
2022-11-03T22:39:43.103Z,90.80
2022-11-03T22:42:29.831Z,87.10
2022-11-03T22:45:15.240Z,90.50
2022-11-03T22:47:43.075Z,90.30
2022-11-03T22:50:11.008Z,89.70
2022-11-03T22:52:38.758Z,92.60
2022-11-03T22:55:07.311Z,93.00
2022-11-03T22:57:35.098Z,91.50
2022-11-03T23:00:05.578Z,93.10
2022-11-03T23:02:33.607Z,92.50
2022-11-03T23:05:01.513Z,91.50
2022-11-03T23:07:32.239Z,91.80
2022-11-03T23:10:04.659Z,93.60
2022-11-03T23:12:34.136Z,92.70
2022-11-03T23:15:19.562Z,94.30
2022-11-03T23:18:04.903Z,92.80
2022-11-03T23:20:50.032Z,91.70
2022-11-03T23:23:31.726Z,91.30
2022-11-03T23:25:59.567Z,91.30
2022-11-03T23:28:28.725Z,89.20
2022-11-03T23:30:56.487Z,92.30
2022-11-03T23:33:24.304Z,91.60
2022-11-03T23:35:52.161Z,90.50
2022-11-03T23:38:19.948Z,91.40
2022-11-03T23:40:47.796Z,91.10
2022-11-03T23:43:15.706Z,91.60
2022-11-03T23:46:02.110Z,90.30
2022-11-03T23:48:47.864Z,89.80
2022-11-03T23:51:16.153Z,88.00
2022-11-03T23:53:43.966Z,89.30
2022-11-03T23:56:30.346Z,88.20
2022-11-03T23:58:58.129Z,89.00
